Time;durP1;ratioP1;P1;durP2;ratioP2;P2;SDS_P1;SDS_P2;PMS_P1;PMS_P2;Temp;Humidity;BMP_temperature;BMP_pressure;BME280_temperature;BME280_humidity;BME280_pressure;Samples;Min_cycle;Max_cycle;Signal;HPM_P1;HPM_P2
2021/06/14 00:02:44;;;;;;;;;;;12.40;99.90;;;;;;8358763;28;19951;-62
2021/06/14 00:06:45;;;;;;;;;;;12.10;99.90;;;;;;8358462;28;20516;-61
2021/06/14 00:10:47;;;;;;;;;;;12.00;99.90;;;;;;8358479;28;19911;-62
2021/06/14 00:14:48;;;;;;;;;;;12.10;99.90;;;;;;8358805;28;20434;-62
2021/06/14 00:18:49;;;;;;;;;;;11.80;99.90;;;;;;8358055;28;19913;-62
2021/06/14 00:22:50;;;;;;;;;;;11.60;99.90;;;;;;8358241;28;20486;-62
2021/06/14 00:26:50;;;;;;;;;;;11.70;99.90;;;;;;8358180;28;20362;-62
2021/06/14 00:30:51;;;;;;;;;;;11.50;99.90;;;;;;8358223;28;19925;-62
2021/06/14 00:34:52;;;;;;;;;;;11.70;99.90;;;;;;8357463;28;19956;-62
2021/06/14 00:38:52;;;;;;;;;;;11.40;99.90;;;;;;8358149;28;20298;-62
2021/06/14 00:42:52;;;;;;;;;;;11.10;99.90;;;;;;8358379;28;20298;-62
2021/06/14 00:46:53;;;;;;;;;;;11.00;99.90;;;;;;8357997;28;20422;-62
2021/06/14 00:51:01;;;;;;;;;;;10.90;99.90;;;;;;8374045;28;20389;-62
2021/06/14 00:55:02;;;;;;;;;;;11.00;99.90;;;;;;8358213;28;20382;-62
2021/06/14 00:59:02;;;;;;;;;;;10.90;99.90;;;;;;8357818;28;19916;-62
2021/06/14 01:03:03;;;;;;;;;;;10.90;99.90;;;;;;8358762;28;19915;-62
2021/06/14 01:07:04;;;;;;;;;;;10.80;99.90;;;;;;8363833;28;19963;-62
2021/06/14 01:11:07;;;;;;;;;;;10.80;99.90;;;;;;8363959;28;19998;-62
2021/06/14 01:15:14;;;;;;;;;;;10.80;99.90;;;;;;8363833;28;20304;-62
2021/06/14 01:19:33;;;;;;;;;;;10.60;99.90;;;;;;8362966;28;19954;-62
2021/06/14 01:23:53;;;;;;;;;;;10.50;99.90;;;;;;8363526;28;19909;-61
2021/06/14 01:27:56;;;;;;;;;;;10.70;99.90;;;;;;8363107;28;20536;-62
2021/06/14 01:31:57;;;;;;;;;;;10.50;99.90;;;;;;8361800;28;19909;-62
2021/06/14 01:36:06;;;;;;;;;;;10.50;99.90;;;;;;8363042;28;20298;-62
2021/06/14 01:40:08;;;;;;;;;;;10.70;99.90;;;;;;8363761;28;20389;-62
2021/06/14 01:44:09;;;;;;;;;;;10.40;99.90;;;;;;8363241;28;19935;-62
2021/06/14 01:48:10;;;;;;;;;;;10.10;99.90;;;;;;8362538;28;19962;-62
2021/06/14 01:52:11;;;;;;;;;;;10.10;99.90;;;;;;8362353;28;19924;-63
2021/06/14 01:56:11;;;;;;;;;;;10.10;99.90;;;;;;8362179;28;20377;-62
2021/06/14 02:00:13;;;;;;;;;;;10.00;99.90;;;;;;8362455;28;20306;-62
2021/06/14 02:04:13;;;;;;;;;;;9.90;99.90;;;;;;8362181;28;19916;-62
2021/06/14 02:08:15;;;;;;;;;;;9.90;99.90;;;;;;8361935;28;19919;-62
2021/06/14 02:12:16;;;;;;;;;;;10.00;99.90;;;;;;8360370;28;20295;-62
2021/06/14 02:16:17;;;;;;;;;;;10.20;99.90;;;;;;8361380;28;19949;-62
2021/06/14 02:20:17;;;;;;;;;;;10.10;99.90;;;;;;8361296;28;20407;-62
2021/06/14 02:24:18;;;;;;;;;;;9.90;99.90;;;;;;8361572;28;19936;-62
2021/06/14 02:28:18;;;;;;;;;;;9.70;99.90;;;;;;8360843;28;19942;-62
2021/06/14 02:32:19;;;;;;;;;;;9.60;99.90;;;;;;8361096;28;19909;-62
2021/06/14 02:36:20;;;;;;;;;;;9.60;99.90;;;;;;8360763;28;19946;-62
2021/06/14 02:40:25;;;;;;;;;;;9.60;99.90;;;;;;8361162;28;19913;-62
2021/06/14 02:44:28;;;;;;;;;;;9.60;99.90;;;;;;8360479;28;19923;-62
2021/06/14 02:48:29;;;;;;;;;;;9.70;99.90;;;;;;8359857;28;19916;-62
2021/06/14 02:52:31;;;;;;;;;;;9.50;99.90;;;;;;8360633;28;20353;-62
2021/06/14 02:56:33;;;;;;;;;;;9.30;99.90;;;;;;8360379;28;20288;-62
2021/06/14 03:00:33;;;;;;;;;;;9.30;99.90;;;;;;8360226;28;19962;-62
2021/06/14 03:04:34;;;;;;;;;;;9.30;99.90;;;;;;8360321;28;20515;-62
2021/06/14 03:08:36;;;;;;;;;;;9.40;99.90;;;;;;8359808;28;19923;-62
2021/06/14 03:12:36;;;;;;;;;;;9.50;99.90;;;;;;8359873;28;19946;-62
2021/06/14 03:16:37;;;;;;;;;;;9.30;99.90;;;;;;8358631;28;19956;-62
2021/06/14 03:20:39;;;;;;;;;;;9.10;99.90;;;;;;8358669;28;19944;-62
2021/06/14 03:24:40;;;;;;;;;;;9.00;99.90;;;;;;8358993;28;19929;-62
2021/06/14 03:28:44;;;;;;;;;;;9.10;99.90;;;;;;8358692;28;19909;-62
2021/06/14 03:32:44;;;;;;;;;;;9.20;99.90;;;;;;8358823;28;20587;-62
2021/06/14 03:36:45;;;;;;;;;;;9.20;99.90;;;;;;8359010;28;19951;-62
2021/06/14 03:40:46;;;;;;;;;;;9.30;99.90;;;;;;8359552;28;20003;-62
2021/06/14 03:44:46;;;;;;;;;;;9.20;99.90;;;;;;8359136;28;19925;-62
2021/06/14 03:48:47;;;;;;;;;;;9.30;99.90;;;;;;8351659;28;19917;-62
2021/06/14 03:52:47;;;;;;;;;;;9.40;99.90;;;;;;8344794;28;19921;-62
2021/06/14 03:56:47;;;;;;;;;;;9.60;99.90;;;;;;8357061;28;19927;-62
2021/06/14 04:00:48;;;;;;;;;;;9.80;99.90;;;;;;8358996;28;19913;-62
2021/06/14 04:04:53;;;;;;;;;;;9.80;99.90;;;;;;8355188;28;19923;-62
2021/06/14 04:08:53;;;;;;;;;;;9.80;99.90;;;;;;8346363;28;19913;-69
2021/06/14 04:12:54;;;;;;;;;;;9.90;99.90;;;;;;8346662;28;19961;-70
2021/06/14 04:16:54;;;;;;;;;;;10.10;99.90;;;;;;8354783;28;19955;-70
2021/06/14 04:20:55;;;;;;;;;;;10.30;99.90;;;;;;8341379;28;20007;-70
2021/06/14 04:24:55;;;;;;;;;;;10.50;99.90;;;;;;8343213;28;19995;-70
2021/06/14 04:28:56;;;;;;;;;;;10.80;99.90;;;;;;8325696;28;20022;-70
2021/06/14 04:32:56;;;;;;;;;;;10.90;99.90;;;;;;8328871;28;19909;-70
2021/06/14 04:36:57;;;;;;;;;;;11.10;99.90;;;;;;8346943;28;19916;-70
2021/06/14 04:40:57;;;;;;;;;;;11.60;99.90;;;;;;8363120;28;19912;-69
2021/06/14 04:44:58;;;;;;;;;;;12.00;99.90;;;;;;8348955;28;19932;-69
2021/06/14 04:53:00;;;;;;;;;;;12.30;99.90;;;;;;8329257;22;20293;-65
2021/06/14 04:57:01;;;;;;;;;;;12.50;99.90;;;;;;8326076;28;19917;-65
2021/06/14 05:01:02;;;;;;;;;;;12.80;99.90;;;;;;8330131;28;19909;-66
2021/06/14 05:05:03;;;;;;;;;;;13.10;99.90;;;;;;8309649;28;20332;-65
2021/06/14 05:09:04;;;;;;;;;;;13.40;99.90;;;;;;8297715;28;19925;-66
2021/06/14 05:13:04;;;;;;;;;;;13.70;99.90;;;;;;8297896;28;20364;-66
2021/06/14 05:17:05;;;;;;;;;;;13.70;99.90;;;;;;8297753;28;19913;-65
2021/06/14 05:21:05;;;;;;;;;;;14.00;99.90;;;;;;8297838;28;20386;-66
2021/06/14 05:25:06;;;;;;;;;;;14.40;99.90;;;;;;8309620;28;20293;-65
2021/06/14 05:29:07;;;;;;;;;;;14.80;99.90;;;;;;8329867;28;19913;-65
2021/06/14 05:33:07;;;;;;;;;;;15.00;99.90;;;;;;8323638;28;19955;-66
2021/06/14 05:37:07;;;;;;;;;;;15.80;99.90;;;;;;8297696;28;20283;-66
2021/06/14 05:41:08;;;;;;;;;;;16.40;99.90;;;;;;8296047;28;20283;-65
2021/06/14 05:45:09;;;;;;;;;;;16.70;99.90;;;;;;8296079;28;20352;-65
2021/06/14 05:49:09;;;;;;;;;;;16.80;99.90;;;;;;8296349;28;20446;-65
2021/06/14 05:53:10;;;;;;;;;;;16.80;99.90;;;;;;8299982;28;19952;-66
2021/06/14 05:57:10;;;;;;;;;;;16.70;99.90;;;;;;8315057;28;20498;-66
2021/06/14 06:01:11;;;;;;;;;;;16.90;99.90;;;;;;8296159;28;19956;-65
2021/06/14 06:05:12;;;;;;;;;;;17.00;99.90;;;;;;8296273;28;20008;-66
2021/06/14 06:09:12;;;;;;;;;;;17.00;99.90;;;;;;8294789;28;19923;-66
2021/06/14 06:13:13;;;;;;;;;;;17.10;99.90;;;;;;8294088;28;19913;-65
2021/06/14 06:17:13;;;;;;;;;;;17.20;99.90;;;;;;8295283;28;20340;-65
2021/06/14 06:21:14;;;;;;;;;;;17.30;99.90;;;;;;8308242;28;20524;-66
2021/06/14 06:25:16;;;;;;;;;;;17.40;99.90;;;;;;8302408;28;19928;-65
2021/06/14 06:29:16;;;;;;;;;;;17.30;99.90;;;;;;8294338;28;20436;-66
2021/06/14 06:33:17;;;;;;;;;;;17.20;99.90;;;;;;8302963;28;19925;-65
2021/06/14 06:37:18;;;;;;;;;;;17.40;99.90;;;;;;8325257;28;19924;-66
2021/06/14 06:41:18;;;;;;;;;;;17.80;99.90;;;;;;8327840;28;19997;-65
2021/06/14 06:45:20;;;;;;;;;;;18.10;99.90;;;;;;8309434;28;20009;-65
2021/06/14 06:49:20;;;;;;;;;;;18.30;99.90;;;;;;8305419;28;19909;-66
2021/06/14 06:53:21;;;;;;;;;;;18.50;99.90;;;;;;8324736;28;19956;-65
2021/06/14 06:57:21;;;;;;;;;;;18.70;99.90;;;;;;8325768;28;20518;-65
2021/06/14 07:01:22;;;;;;;;;;;18.90;99.90;;;;;;8325801;28;20562;-65
2021/06/14 07:05:22;;;;;;;;;;;19.10;99.90;;;;;;8325750;28;19948;-65
2021/06/14 07:09:23;;;;;;;;;;;19.10;99.90;;;;;;8306067;28;19968;-65
2021/06/14 07:13:23;;;;;;;;;;;19.20;99.90;;;;;;8294306;28;19913;-65
2021/06/14 07:17:24;;;;;;;;;;;19.30;99.90;;;;;;8293153;28;19928;-65
2021/06/14 07:21:24;;;;;;;;;;;19.20;99.90;;;;;;8303116;28;20385;-66
2021/06/14 07:25:25;;;;;;;;;;;19.50;99.90;;;;;;8324231;28;20418;-65
2021/06/14 07:29:28;;;;;;;;;;;19.60;99.90;;;;;;8326572;28;19943;-65
2021/06/14 07:33:28;;;;;;;;;;;19.70;99.90;;;;;;8315775;28;19920;-65
2021/06/14 07:37:29;;;;;;;;;;;19.90;99.90;;;;;;8313395;28;19924;-65
2021/06/14 07:41:29;;;;;;;;;;;20.10;99.90;;;;;;8323975;28;19970;-65
2021/06/14 07:45:30;;;;;;;;;;;20.20;99.90;;;;;;8326777;28;19909;-65
2021/06/14 07:49:30;;;;;;;;;;;20.40;99.90;;;;;;8323732;28;19967;-65
2021/06/14 07:53:31;;;;;;;;;;;20.50;99.90;;;;;;8313874;28;19952;-65
2021/06/14 07:57:31;;;;;;;;;;;20.50;99.90;;;;;;8293599;28;19963;-65
2021/06/14 08:01:32;;;;;;;;;;;20.70;99.90;;;;;;8293217;28;20013;-65
2021/06/14 08:05:32;;;;;;;;;;;20.90;99.90;;;;;;8293617;28;19916;-65
2021/06/14 08:09:33;;;;;;;;;;;20.90;99.90;;;;;;8299156;28;20035;-64
2021/06/14 08:13:33;;;;;;;;;;;20.80;99.90;;;;;;8330056;28;19912;-65
2021/06/14 08:17:34;;;;;;;;;;;20.80;99.90;;;;;;8331356;28;20322;-65
2021/06/14 08:25:41;;;;;;;;;;;21.00;99.90;;;;;;8324428;28;19975;-65
2021/06/14 08:29:41;;;;;;;;;;;21.10;99.90;;;;;;8326467;28;20004;-65
2021/06/14 08:33:42;;;;;;;;;;;21.00;99.90;;;;;;8325214;28;20394;-65
2021/06/14 08:37:43;;;;;;;;;;;21.10;99.90;;;;;;8331123;28;19921;-65
2021/06/14 08:41:45;;;;;;;;;;;21.40;99.90;;;;;;8330161;28;20452;-64
2021/06/14 08:45:48;;;;;;;;;;;21.60;99.90;;;;;;8330026;28;19916;-65
2021/06/14 08:49:48;;;;;;;;;;;21.40;99.90;;;;;;8329525;28;20021;-65
2021/06/14 08:53:51;;;;;;;;;;;21.40;99.90;;;;;;8324979;28;19951;-65
2021/06/14 08:57:52;;;;;;;;;;;21.80;99.90;;;;;;8329067;28;19917;-65
2021/06/14 09:01:52;;;;;;;;;;;22.10;99.90;;;;;;8330699;28;20352;-65
2021/06/14 09:05:53;;;;;;;;;;;22.50;99.90;;;;;;8328691;28;19921;-65
2021/06/14 09:09:54;;;;;;;;;;;22.60;99.40;;;;;;8330753;28;20503;-65
2021/06/14 09:13:54;;;;;;;;;;;22.70;98.50;;;;;;8330091;28;19970;-65
2021/06/14 09:17:55;;;;;;;;;;;22.90;98.70;;;;;;8328950;28;19917;-65
2021/06/14 09:21:56;;;;;;;;;;;23.00;97.30;;;;;;8329258;28;19913;-65
2021/06/14 09:25:57;;;;;;;;;;;22.90;97.50;;;;;;8327478;28;20600;-64
2021/06/14 09:30:09;;;;;;;;;;;22.90;97.00;;;;;;8323144;28;19921;-65
2021/06/14 09:34:10;;;;;;;;;;;22.70;95.00;;;;;;8325722;28;19913;-64
2021/06/14 09:38:10;;;;;;;;;;;22.60;94.70;;;;;;8328013;28;19917;-65
2021/06/14 09:42:12;;;;;;;;;;;22.60;89.70;;;;;;8329946;28;19932;-65
2021/06/14 09:46:21;;;;;;;;;;;22.90;95.40;;;;;;8329025;28;19909;-65
2021/06/14 09:50:23;;;;;;;;;;;23.20;94.50;;;;;;8299234;28;19973;-65
2021/06/14 09:54:27;;;;;;;;;;;23.60;96.00;;;;;;8312341;28;19924;-64
2021/06/14 09:58:28;;;;;;;;;;;23.70;97.00;;;;;;8327794;28;20020;-65
2021/06/14 10:02:33;;;;;;;;;;;23.90;94.50;;;;;;8329208;28;19943;-65
2021/06/14 10:06:35;;;;;;;;;;;24.10;93.20;;;;;;8284657;28;19920;-65
2021/06/14 10:10:37;;;;;;;;;;;24.30;94.30;;;;;;8328029;28;19962;-65
2021/06/14 10:14:47;;;;;;;;;;;24.20;88.80;;;;;;8327933;28;19944;-65
2021/06/14 10:18:54;;;;;;;;;;;24.20;92.00;;;;;;8330410;28;19951;-64
2021/06/14 10:22:56;;;;;;;;;;;24.50;91.00;;;;;;8326359;28;19916;-65
2021/06/14 10:26:56;;;;;;;;;;;24.40;89.70;;;;;;8326951;28;19986;-65
2021/06/14 10:30:56;;;;;;;;;;;24.10;88.90;;;;;;8328274;28;19914;-64
2021/06/14 10:34:58;;;;;;;;;;;24.20;89.50;;;;;;8321760;28;19920;-65
2021/06/14 10:38:59;;;;;;;;;;;24.30;87.30;;;;;;8326981;28;20402;-65
2021/06/14 10:43:01;;;;;;;;;;;24.30;85.20;;;;;;8327887;28;19967;-65
2021/06/14 10:47:02;;;;;;;;;;;24.20;87.40;;;;;;8327801;28;20028;-64
2021/06/14 10:51:03;;;;;;;;;;;24.70;80.50;;;;;;8351770;22;20008;-70
2021/06/14 10:55:08;;;;;;;;;;;25.10;81.50;;;;;;8332381;28;19920;-67
2021/06/14 10:59:09;;;;;;;;;;;25.40;77.30;;;;;;8320869;28;19921;-67
2021/06/14 11:03:12;;;;;;;;;;;25.40;73.80;;;;;;8308831;28;19921;-67
2021/06/14 11:07:14;;;;;;;;;;;25.40;78.10;;;;;;8302752;28;19913;-67
2021/06/14 11:11:15;;;;;;;;;;;25.90;74.10;;;;;;8296432;28;20042;-67
2021/06/14 11:15:15;;;;;;;;;;;26.20;71.20;;;;;;8305693;28;19967;-67
2021/06/14 11:19:17;;;;;;;;;;;25.80;63.80;;;;;;8290666;28;19921;-67
2021/06/14 11:23:19;;;;;;;;;;;25.80;66.50;;;;;;8299163;28;19909;-67
2021/06/14 11:27:20;;;;;;;;;;;26.10;70.90;;;;;;8311680;28;20010;-67
2021/06/14 11:31:25;;;;;;;;;;;26.50;73.10;;;;;;8324634;28;19909;-67
2021/06/14 11:35:27;;;;;;;;;;;27.10;58.90;;;;;;8331911;28;19919;-65
2021/06/14 11:39:28;;;;;;;;;;;28.20;60.60;;;;;;8329892;28;19917;-65
2021/06/14 11:43:28;;;;;;;;;;;29.90;46.40;;;;;;8333074;28;19913;-66
2021/06/14 11:47:29;;;;;;;;;;;32.40;50.90;;;;;;8346354;28;19975;-67
2021/06/14 11:51:32;;;;;;;;;;;34.30;45.10;;;;;;8328350;28;19949;-66
2021/06/14 11:55:34;;;;;;;;;;;34.30;46.70;;;;;;8327881;28;19942;-66
2021/06/14 11:59:36;;;;;;;;;;;34.30;46.60;;;;;;8325930;28;21911;-64
2021/06/14 12:03:37;;;;;;;;;;;33.40;47.30;;;;;;8348961;28;19981;-66
2021/06/14 12:07:40;;;;;;;;;;;32.70;45.50;;;;;;8330594;28;19917;-65
2021/06/14 12:11:41;;;;;;;;;;;32.00;43.30;;;;;;8321273;28;19921;-65
2021/06/14 12:15:41;;;;;;;;;;;30.40;45.60;;;;;;8326026;28;19917;-65
2021/06/14 12:19:42;;;;;;;;;;;29.80;47.10;;;;;;8325279;28;19989;-66
2021/06/14 12:23:43;;;;;;;;;;;29.40;50.70;;;;;;8324205;28;20461;-66
2021/06/14 12:27:43;;;;;;;;;;;29.30;51.40;;;;;;8325090;28;20558;-66
2021/06/14 12:31:44;;;;;;;;;;;30.20;50.90;;;;;;8325242;28;20349;-66
2021/06/14 12:35:44;;;;;;;;;;;31.10;47.70;;;;;;8298220;28;19913;-65
2021/06/14 12:40:02;;;;;;;;;;;30.60;46.10;;;;;;8321553;28;19935;-66
2021/06/14 12:44:10;;;;;;;;;;;30.50;47.70;;;;;;8320430;28;19932;-66
2021/06/14 12:48:12;;;;;;;;;;;34.50;43.20;;;;;;8357042;28;19909;-66
2021/06/14 12:52:20;;;;;;;;;;;36.60;39.90;;;;;;8326242;28;19928;-66
2021/06/14 12:56:21;;;;;;;;;;;38.10;33.00;;;;;;8315157;28;20332;-66
2021/06/14 13:00:26;;;;;;;;;;;39.40;33.80;;;;;;8330843;28;19912;-66
2021/06/14 13:04:26;;;;;;;;;;;40.90;30.80;;;;;;8345292;28;19913;-67
2021/06/14 13:08:34;;;;;;;;;;;42.70;31.20;;;;;;8352744;28;19909;-67
2021/06/14 13:12:35;;;;;;;;;;;45.00;29.10;;;;;;8336566;28;20471;-68
2021/06/14 13:16:43;;;;;;;;;;;44.50;28.20;;;;;;8341249;28;19920;-66
2021/06/14 13:20:45;;;;;;;;;;;45.90;25.30;;;;;;8340959;28;19920;-66
2021/06/14 13:24:45;;;;;;;;;;;46.20;26.10;;;;;;8339047;28;19909;-67
2021/06/14 13:28:46;;;;;;;;;;;46.50;25.50;;;;;;8330006;28;20363;-67
2021/06/14 13:32:50;;;;;;;;;;;46.30;25.70;;;;;;8345519;28;19924;-67
2021/06/14 13:36:53;;;;;;;;;;;45.50;24.40;;;;;;8344218;28;19928;-67
2021/06/14 13:40:55;;;;;;;;;;;43.60;26.80;;;;;;8331828;28;19917;-66
2021/06/14 13:44:56;;;;;;;;;;;44.10;25.50;;;;;;8332678;28;19920;-69
2021/06/14 13:48:56;;;;;;;;;;;46.00;25.20;;;;;;8354168;28;19909;-68
2021/06/14 13:53:04;;;;;;;;;;;46.30;24.10;;;;;;8345554;28;20330;-67
2021/06/14 13:57:12;;;;;;;;;;;45.30;25.50;;;;;;8330747;28;19925;-67
2021/06/14 14:01:21;;;;;;;;;;;47.10;25.20;;;;;;8335334;28;20413;-67
2021/06/14 14:05:32;;;;;;;;;;;48.60;23.70;;;;;;8335409;28;19917;-67
2021/06/14 14:09:33;;;;;;;;;;;48.30;22.60;;;;;;8326705;28;19909;-69
2021/06/14 14:13:33;;;;;;;;;;;47.20;23.90;;;;;;8330825;28;19920;-69
2021/06/14 14:17:34;;;;;;;;;;;47.30;22.90;;;;;;8327203;28;19917;-67
2021/06/14 14:21:36;;;;;;;;;;;46.80;23.80;;;;;;8334512;28;20546;-69
2021/06/14 14:25:36;;;;;;;;;;;45.00;24.70;;;;;;8346096;28;20003;-69
2021/06/14 14:29:37;;;;;;;;;;;43.40;27.30;;;;;;8335355;28;19920;-71
2021/06/14 14:33:37;;;;;;;;;;;43.80;26.60;;;;;;8321444;28;19914;-68
2021/06/14 14:37:41;;;;;;;;;;;44.00;26.40;;;;;;8325289;28;20005;-68
2021/06/14 14:41:44;;;;;;;;;;;44.70;26.10;;;;;;8322847;28;19920;-70
2021/06/14 14:45:44;;;;;;;;;;;44.20;26.30;;;;;;8329080;28;19917;-67
2021/06/14 14:49:45;;;;;;;;;;;43.90;26.10;;;;;;8327044;28;19913;-68
2021/06/14 14:53:45;;;;;;;;;;;43.10;25.90;;;;;;8342632;28;19917;-68
2021/06/14 14:57:46;;;;;;;;;;;42.60;27.30;;;;;;8333184;28;19917;-68
2021/06/14 15:01:46;;;;;;;;;;;42.10;26.10;;;;;;8358455;28;19912;-68
2021/06/14 15:05:47;;;;;;;;;;;42.10;28.30;;;;;;8336457;28;20012;-68
2021/06/14 15:09:47;;;;;;;;;;;43.90;26.70;;;;;;8339364;28;20012;-68
2021/06/14 15:13:48;;;;;;;;;;;44.30;26.70;;;;;;8358958;28;19917;-69
2021/06/14 15:17:50;;;;;;;;;;;44.30;26.50;;;;;;8332984;28;19920;-67
2021/06/14 15:21:51;;;;;;;;;;;45.00;26.50;;;;;;8345239;28;20365;-69
2021/06/14 15:25:52;;;;;;;;;;;46.20;25.40;;;;;;8327847;28;19924;-67
2021/06/14 15:29:52;;;;;;;;;;;46.70;24.90;;;;;;8326214;28;20280;-68
2021/06/14 15:33:53;;;;;;;;;;;46.80;25.20;;;;;;8331241;28;19941;-68
2021/06/14 15:37:58;;;;;;;;;;;47.40;24.90;;;;;;8338207;28;19917;-69
2021/06/14 15:41:59;;;;;;;;;;;48.20;24.40;;;;;;8320423;28;19909;-66
2021/06/14 15:46:00;;;;;;;;;;;47.30;24.60;;;;;;8331804;28;19924;-69
2021/06/14 15:50:00;;;;;;;;;;;45.40;24.50;;;;;;8338643;28;20002;-69
2021/06/14 15:54:01;;;;;;;;;;;46.90;25.30;;;;;;8345062;28;19924;-69
2021/06/14 15:58:01;;;;;;;;;;;48.10;24.20;;;;;;8339086;28;19932;-69
2021/06/14 16:02:02;;;;;;;;;;;49.20;23.40;;;;;;8347452;28;19962;-68
2021/06/14 16:06:03;;;;;;;;;;;47.60;22.70;;;;;;8327405;28;19917;-67
2021/06/14 16:10:05;;;;;;;;;;;44.80;25.60;;;;;;8307123;28;20422;-70
2021/06/14 16:14:05;;;;;;;;;;;43.10;27.00;;;;;;8293404;28;20323;-68
2021/06/14 16:18:06;;;;;;;;;;;43.50;26.50;;;;;;8318158;28;20002;-71
2021/06/14 16:22:07;;;;;;;;;;;45.30;25.90;;;;;;8292282;28;19915;-71
2021/06/14 16:26:07;;;;;;;;;;;47.30;24.10;;;;;;8304224;28;19918;-69
2021/06/14 16:30:09;;;;;;;;;;;48.40;23.40;;;;;;8294202;28;19909;-71
2021/06/14 16:34:09;;;;;;;;;;;48.60;22.40;;;;;;8311384;28;19994;-69
2021/06/14 16:38:10;;;;;;;;;;;48.70;23.80;;;;;;8308966;28;19921;-70
2021/06/14 16:42:11;;;;;;;;;;;48.70;23.30;;;;;;8322079;28;19909;-70
2021/06/14 16:46:12;;;;;;;;;;;47.90;22.90;;;;;;8310496;28;20043;-70
2021/06/14 16:50:13;;;;;;;;;;;46.30;23.70;;;;;;8308114;28;19971;-71
2021/06/14 16:54:17;;;;;;;;;;;46.40;23.20;;;;;;8313484;28;19913;-72
2021/06/14 16:58:18;;;;;;;;;;;46.60;24.40;;;;;;8323567;28;19913;-71
2021/06/14 17:02:18;;;;;;;;;;;46.90;24.50;;;;;;8317513;28;19914;-71
2021/06/14 17:06:19;;;;;;;;;;;45.50;25.20;;;;;;8314810;28;19928;-70
2021/06/14 17:10:20;;;;;;;;;;;43.70;26.90;;;;;;8317823;28;19913;-70
2021/06/14 17:14:20;;;;;;;;;;;43.50;26.00;;;;;;8317096;28;19924;-71
2021/06/14 17:18:21;;;;;;;;;;;43.90;26.00;;;;;;8330247;28;19913;-69
2021/06/14 17:22:24;;;;;;;;;;;43.90;26.40;;;;;;8362657;22;19932;-70
2021/06/14 17:26:25;;;;;;;;;;;42.70;26.30;;;;;;8337932;28;19922;-70
2021/06/14 17:30:25;;;;;;;;;;;39.40;29.20;;;;;;8323999;28;20429;-69
2021/06/14 17:34:26;;;;;;;;;;;35.80;32.30;;;;;;8328774;28;19919;-70
2021/06/14 17:38:26;;;;;;;;;;;33.90;35.80;;;;;;8329165;28;19913;-70
2021/06/14 17:42:27;;;;;;;;;;;33.10;37.40;;;;;;8332620;28;19924;-70
2021/06/14 17:46:28;;;;;;;62.90;23.13;;;33.40;37.50;;;;;;8329627;28;20442;-71
2021/06/14 17:50:30;;;;;;;38.05;19.85;;;32.50;38.60;;;;;;8331204;28;20437;-69
2021/06/14 17:54:31;;;;;;;;;;;31.00;42.00;;;;;;8323126;28;20100;-67
2021/06/14 17:58:32;;;;;;;;;;;29.80;45.20;;;;;;8327186;28;19912;-70
2021/06/14 18:02:32;;;;;;;;;;;30.50;43.50;;;;;;8320007;28;19920;-70
2021/06/14 18:06:33;;;;;;;;;;;30.90;42.80;;;;;;8337662;28;19936;-69
2021/06/14 18:10:34;;;;;;;;;;;31.30;44.40;;;;;;8326477;28;19909;-70
2021/06/14 18:14:35;;;;;;;;;;;32.70;42.10;;;;;;8313787;28;19915;-70
2021/06/14 18:18:35;;;;;;;;;;;32.70;39.60;;;;;;8316594;28;19909;-70
2021/06/14 18:22:36;;;;;;;;;;;32.10;41.80;;;;;;8317903;28;19917;-70
2021/06/14 18:26:36;;;;;;;;;;;30.20;45.20;;;;;;8320100;28;19915;-70
2021/06/14 18:30:37;;;;;;;;;;;28.40;48.10;;;;;;8327203;28;19932;-69
2021/06/14 18:34:38;;;;;;;;;;;27.10;50.70;;;;;;8323751;28;19920;-70
2021/06/14 18:38:39;;;;;;;;;;;25.40;54.90;;;;;;8323636;28;19905;-69
2021/06/14 18:42:39;;;;;;;;;;;24.10;58.70;;;;;;8323739;28;20004;-69
2021/06/14 18:46:40;;;;;;;;;;;23.40;61.30;;;;;;8319037;28;20375;-71
2021/06/14 18:50:41;;;;;;;;;;;23.30;62.60;;;;;;8325339;28;19996;-71
2021/06/14 18:54:42;;;;;;;;;;;23.00;62.20;;;;;;8327131;28;19909;-73
2021/06/14 18:58:43;;;;;;;;;;;22.50;66.90;;;;;;8335004;28;19960;-70
2021/06/14 19:02:43;;;;;;;;;;;22.50;65.30;;;;;;8323444;28;19913;-69
2021/06/14 19:06:44;;;;;;;;;;;22.40;66.30;;;;;;8323244;28;19913;-73
2021/06/14 19:10:44;;;;;;;;;;;22.10;67.10;;;;;;8323559;28;20473;-73
2021/06/14 19:14:45;;;;;;;;;;;22.10;67.30;;;;;;8324601;28;19916;-73
2021/06/14 19:18:45;;;;;;;;;;;21.90;71.20;;;;;;8324785;28;19912;-72
2021/06/14 19:22:46;;;;;;;;;;;21.90;82.40;;;;;;8323586;28;19917;-72
2021/06/14 19:26:47;;;;;;;;;;;21.70;76.60;;;;;;8324037;28;19909;-71
2021/06/14 19:30:48;;;;;;;;;;;21.40;81.30;;;;;;8324080;28;19919;-72
2021/06/14 19:34:49;;;;;;;;;;;21.10;90.00;;;;;;8323521;28;19909;-72
2021/06/14 19:38:49;;;;;;;;;;;20.80;90.60;;;;;;8323695;28;19912;-73
2021/06/14 19:42:50;;;;;;;;;;;20.70;92.20;;;;;;8328329;28;19958;-75
2021/06/14 19:46:50;;;;;;;;;;;20.90;97.70;;;;;;8338176;28;19920;-75
2021/06/14 19:50:51;;;;;;;;;;;20.70;96.60;;;;;;8324811;28;20711;-74
2021/06/14 19:54:52;;;;;;;;;;;20.60;93.90;;;;;;8322501;28;20518;-75
2021/06/14 19:58:53;;;;;;;14.15;11.93;;;20.30;95.70;;;;;;8321554;28;20404;-75
2021/06/14 20:02:54;;;;;;;;;;;20.10;96.90;;;;;;8313567;28;20069;-75
2021/06/14 20:06:54;;;;;;;30.40;16.50;;;19.80;99.20;;;;;;8320939;28;20394;-75
2021/06/14 20:10:55;;;;;;;;;;;19.50;99.90;;;;;;8321990;28;20041;-65
2021/06/14 20:14:56;;;;;;;;;;;19.60;99.90;;;;;;8336274;28;20432;-65
2021/06/14 20:18:57;;;;;;;;;;;19.50;99.90;;;;;;8354289;28;19905;-65
2021/06/14 20:22:58;;;;;;;;;;;19.30;99.90;;;;;;8339988;28;19913;-65
2021/06/14 20:26:58;;;;;;;;;;;19.20;99.90;;;;;;8323437;28;20336;-65
2021/06/14 20:30:59;;;;;;;;;;;18.80;99.90;;;;;;8324741;28;20334;-65
2021/06/14 20:35:00;;;;;;;;;;;18.60;99.90;;;;;;8326792;28;20034;-65
2021/06/14 20:39:02;;;;;;;;;;;18.40;99.90;;;;;;8328494;28;20350;-65
2021/06/14 20:43:03;;;;;;;;;;;18.30;99.90;;;;;;8325700;28;19999;-65
2021/06/14 20:47:04;;;;;;;;;;;18.30;99.90;;;;;;8324267;28;19944;-65
2021/06/14 20:51:05;;;;;;;;;;;17.80;99.90;;;;;;8323778;28;20026;-65
2021/06/14 20:55:05;;;;;;;;;;;17.50;99.90;;;;;;8324173;28;19941;-65
2021/06/14 20:59:06;;;;;;;;;;;17.50;99.90;;;;;;8323011;28;19943;-65
2021/06/14 21:03:08;;;;;;;;;;;17.20;99.90;;;;;;8324726;28;19958;-65
2021/06/14 21:07:08;;;;;;;;;;;17.10;99.90;;;;;;8323341;28;20012;-65
2021/06/14 21:11:09;;;;;;;;;;;16.90;99.90;;;;;;8322282;28;19905;-65
2021/06/14 21:15:10;;;;;;;;;;;16.80;99.90;;;;;;8324253;28;20000;-65
2021/06/14 21:19:10;;;;;;;;;;;16.60;99.90;;;;;;8323710;28;19955;-65
2021/06/14 21:23:11;;;;;;;;;;;16.80;99.90;;;;;;8330417;28;19933;-65
2021/06/14 21:27:11;;;;;;;;;;;16.60;99.90;;;;;;8330634;28;19919;-65
2021/06/14 21:31:12;;;;;;;;;;;16.30;99.90;;;;;;8330146;28;19905;-65
2021/06/14 21:35:13;;;;;;;;;;;16.10;99.90;;;;;;8329597;28;19967;-65
2021/06/14 21:39:13;;;;;;;;;;;16.20;99.90;;;;;;8329978;28;19916;-65
2021/06/14 21:43:14;;;;;;;;;;;15.90;99.90;;;;;;8328872;28;19905;-65
2021/06/14 21:47:14;;;;;;;;;;;16.10;99.90;;;;;;8330105;28;19905;-65
2021/06/14 21:51:15;;;;;;;;;;;15.70;99.90;;;;;;8326409;28;20444;-65
2021/06/14 21:55:16;;;;;;;;;;;15.60;99.90;;;;;;8327213;28;19912;-65
2021/06/14 21:59:16;;;;;;;;;;;15.70;99.90;;;;;;8329225;28;19909;-65
2021/06/14 22:03:17;;;;;;;;;;;15.60;99.90;;;;;;8329780;28;19905;-65
2021/06/14 22:07:17;;;;;;;;;;;15.40;99.90;;;;;;8329613;28;19942;-65
2021/06/14 22:11:18;;;;;;;;;;;15.30;99.90;;;;;;8329218;28;19958;-66
2021/06/14 22:15:18;;;;;;;;;;;15.00;99.90;;;;;;8327862;28;19948;-65
2021/06/14 22:19:19;;;;;;;;;;;14.90;99.90;;;;;;8328639;28;19998;-65
2021/06/14 22:23:19;;;;;;;;;;;14.90;99.90;;;;;;8328754;28;19913;-65
2021/06/14 22:27:20;;;;;;;;;;;14.90;99.90;;;;;;8328808;28;20001;-65
2021/06/14 22:31:21;;;;;;;;;;;14.70;99.90;;;;;;8328635;28;19909;-65
2021/06/14 22:35:21;;;;;;;;;;;14.70;99.90;;;;;;8328574;28;19955;-65
2021/06/14 22:39:22;;;;;;;;;;;14.80;99.90;;;;;;8327064;28;20325;-65
2021/06/14 22:43:22;;;;;;;;;;;14.50;99.90;;;;;;8328426;28;19911;-65
2021/06/14 22:47:22;;;;;;;;;;;14.30;99.90;;;;;;8328475;28;19991;-65
2021/06/14 22:51:26;;;;;;;;;;;14.20;99.90;;;;;;8327896;28;20350;-65
2021/06/14 22:55:26;;;;;;;;;;;14.10;99.90;;;;;;8327660;28;19996;-65
2021/06/14 22:59:31;;;;;;;;;;;14.30;99.90;;;;;;8326697;28;19909;-65
2021/06/14 23:03:32;;;;;;;;;;;14.10;99.90;;;;;;8325178;28;19916;-65
2021/06/14 23:07:32;;;;;;;;;;;14.10;99.90;;;;;;8327960;28;19915;-65
2021/06/14 23:11:32;;;;;;;;;;;13.90;99.90;;;;;;8327730;28;19905;-65
2021/06/14 23:15:33;;;;;;;;;;;13.90;99.90;;;;;;8327750;28;19946;-65
2021/06/14 23:19:34;;;;;;;;;;;14.00;99.90;;;;;;8325828;28;19909;-65
2021/06/14 23:23:34;;;;;;;;;;;13.70;99.90;;;;;;8364986;22;20302;-64
2021/06/14 23:27:35;;;;;;;;;;;14.00;99.90;;;;;;8359022;28;19908;-64
2021/06/14 23:31:35;;;;;;;;;;;13.80;99.90;;;;;;8360162;28;20367;-64